createdAt,value
2022-10-08T00:01:24.673Z,101461.13
2022-10-08T00:04:28.890Z,101457.78
2022-10-08T00:07:32.583Z,101463.13
2022-10-08T00:10:36.479Z,101462.31
2022-10-08T00:13:43.769Z,101462.47
2022-10-08T00:16:47.523Z,101461.72
2022-10-08T00:19:51.179Z,101449.50
2022-10-08T00:22:54.764Z,101446.97
2022-10-08T00:25:58.390Z,101447.13
2022-10-08T00:29:06.551Z,101444.66
2022-10-08T00:32:11.818Z,101442.97
2022-10-08T00:35:15.847Z,101442.22
2022-10-08T00:38:19.464Z,101440.53
2022-10-08T00:41:27.604Z,101439.66
2022-10-08T00:44:55.373Z,101435.41
2022-10-08T00:47:59.452Z,101427.69
2022-10-08T00:51:03.671Z,101418.97
2022-10-08T00:54:07.612Z,101416.41
2022-10-08T00:57:12.091Z,101410.25
2022-10-08T01:00:22.437Z,101402.38
2022-10-08T01:03:26.181Z,101404.22
2022-10-08T01:06:33.076Z,101399.94
2022-10-08T01:09:43.607Z,101396.41
2022-10-08T01:13:01.616Z,101405.88
2022-10-08T01:16:26.542Z,101405.81
2022-10-08T01:20:22.788Z,101388.19
2022-10-08T01:23:51.830Z,101392.31
2022-10-08T01:27:04.359Z,101396.50
2022-10-08T01:30:15.617Z,101391.13
2022-10-08T01:33:26.808Z,101391.91
2022-10-08T01:36:38.775Z,101399.59
2022-10-08T01:39:46.388Z,101385.47
2022-10-08T01:42:54.105Z,101395.03
2022-10-08T01:46:09.123Z,101389.66
2022-10-08T01:49:18.525Z,101381.84
2022-10-08T01:52:27.924Z,101382.91
2022-10-08T01:55:37.554Z,101389.97
2022-10-08T01:58:53.054Z,101392.63
2022-10-08T02:02:07.935Z,101392.47
2022-10-08T02:05:13.382Z,101393.19
2022-10-08T02:08:17.061Z,101389.50
2022-10-08T02:11:20.905Z,101388.56
2022-10-08T02:14:28.701Z,101381.69
2022-10-08T02:17:43.780Z,101381.75
2022-10-08T02:20:57.055Z,101387.09
2022-10-08T02:24:13.414Z,101393.22
2022-10-08T02:27:21.965Z,101389.72
2022-10-08T02:30:27.536Z,101394.22
2022-10-08T02:33:39.566Z,101395.94
2022-10-08T02:36:47.973Z,101389.72
2022-10-08T02:39:59.651Z,101390.69
2022-10-08T02:43:11.126Z,101380.97
2022-10-08T02:46:20.735Z,101384.31
2022-10-08T02:49:32.564Z,101389.44
2022-10-08T02:52:41.098Z,101390.22
2022-10-08T02:55:54.859Z,101392.63
2022-10-08T02:58:58.770Z,101396.09
2022-10-08T03:02:05.397Z,101390.78
2022-10-08T03:05:19.834Z,101389.78
2022-10-08T03:08:23.705Z,101380.09
2022-10-08T03:11:28.587Z,101380.06
2022-10-08T03:14:37.566Z,101381.66
2022-10-08T03:17:47.271Z,101387.75
2022-10-08T03:20:56.369Z,101379.88
2022-10-08T03:24:00.048Z,101381.53
2022-10-08T03:27:03.580Z,101379.72
2022-10-08T03:30:08.847Z,101384.09
2022-10-08T03:33:12.429Z,101383.16
2022-10-08T03:36:17.436Z,101378.78
2022-10-08T03:39:21.181Z,101383.09
2022-10-08T03:42:24.731Z,101377.78
2022-10-08T03:45:28.312Z,101386.50
2022-10-08T03:48:32.211Z,101392.50
2022-10-08T03:51:37.462Z,101398.53
2022-10-08T03:54:40.969Z,101404.50
2022-10-08T03:57:44.700Z,101401.88
2022-10-08T04:00:59.504Z,101400.94
2022-10-08T04:04:03.034Z,101400.09
2022-10-08T04:07:08.099Z,101397.44
2022-10-08T04:10:11.805Z,101395.53
2022-10-08T04:13:17.044Z,101385.94
2022-10-08T04:16:21.397Z,101383.25
2022-10-08T04:19:25.069Z,101395.50
2022-10-08T04:22:30.173Z,101401.56
2022-10-08T04:25:33.809Z,101399.84
2022-10-08T04:28:38.977Z,101401.56
2022-10-08T04:31:42.939Z,101400.69
2022-10-08T04:34:46.535Z,101404.91
2022-10-08T04:37:51.526Z,101402.44
2022-10-08T04:41:04.677Z,101419.09
2022-10-08T04:44:08.637Z,101410.34
2022-10-08T04:47:12.216Z,101409.56
2022-10-08T04:50:15.988Z,101420.88
2022-10-08T04:53:20.976Z,101430.38
2022-10-08T04:56:27.639Z,101434.88
2022-10-08T04:59:32.285Z,101433.06
2022-10-08T05:02:37.039Z,101435.72
2022-10-08T05:05:41.852Z,101443.66
2022-10-08T05:08:47.896Z,101444.50
2022-10-08T05:11:51.979Z,101442.81
2022-10-08T05:14:55.564Z,101433.25
2022-10-08T05:17:59.139Z,101440.22
2022-10-08T05:21:08.808Z,101451.63
2022-10-08T05:24:13.847Z,101461.22
2022-10-08T05:27:17.757Z,101459.50
2022-10-08T05:30:22.187Z,101462.94
2022-10-08T05:33:27.236Z,101462.94
2022-10-08T05:36:33.496Z,101465.59
2022-10-08T05:39:39.284Z,101470.88
2022-10-08T05:42:42.821Z,101473.56
2022-10-08T05:45:52.282Z,101473.59
2022-10-08T05:48:57.324Z,101476.31
2022-10-08T05:52:00.901Z,101474.66
2022-10-08T05:55:07.030Z,101487.03
2022-10-08T05:58:10.671Z,101483.72
2022-10-08T06:01:17.547Z,101486.44
2022-10-08T06:04:21.312Z,101486.56
2022-10-08T06:07:24.987Z,101498.94
2022-10-08T06:10:32.044Z,101493.78
2022-10-08T06:13:35.976Z,101500.84
2022-10-08T06:16:40.683Z,101506.13
2022-10-08T06:19:44.857Z,101515.81
2022-10-08T06:22:49.415Z,101509.69
2022-10-08T06:25:54.950Z,101520.22
2022-10-08T06:28:59.179Z,101528.13
2022-10-08T06:32:02.934Z,101539.41
2022-10-08T06:35:07.735Z,101542.09
2022-10-08T06:38:11.287Z,101542.91
2022-10-08T06:41:16.292Z,101551.56
2022-10-08T06:44:20.236Z,101552.31
2022-10-08T06:47:24.080Z,101552.19
2022-10-08T06:50:27.601Z,101560.75
2022-10-08T06:53:31.855Z,101570.25
2022-10-08T06:56:37.577Z,101568.31
2022-10-08T06:59:42.731Z,101576.06
2022-10-08T07:02:46.568Z,101580.28
2022-10-08T07:05:50.696Z,101584.47
2022-10-08T07:08:55.414Z,101588.72
2022-10-08T07:12:00.374Z,101586.88
2022-10-08T07:15:04.189Z,101590.22
2022-10-08T07:18:11.685Z,101596.13
2022-10-08T07:21:17.816Z,101597.69
2022-10-08T07:24:21.748Z,101604.50
2022-10-08T07:27:26.724Z,101613.03
2022-10-08T07:30:32.987Z,101622.63
2022-10-08T07:33:36.667Z,101626.75
2022-10-08T07:36:41.847Z,101630.09
2022-10-08T07:39:45.674Z,101633.44
2022-10-08T07:42:51.896Z,101628.94
2022-10-08T07:45:55.489Z,101633.97
2022-10-08T07:49:01.789Z,101634.75
2022-10-08T07:52:05.641Z,101637.06
2022-10-08T07:55:09.950Z,101635.91
2022-10-08T07:58:15.343Z,101636.63
2022-10-08T08:01:22.177Z,101645.16
2022-10-08T08:04:27.456Z,101648.34
2022-10-08T08:07:31.092Z,101649.06
2022-10-08T08:10:35.150Z,101653.34
2022-10-08T08:13:42.585Z,101656.56
2022-10-08T08:16:46.360Z,101649.34
2022-10-08T08:19:50.184Z,101657.81
2022-10-08T08:22:53.891Z,101660.31
2022-10-08T08:25:57.495Z,101653.88
2022-10-08T08:29:06.241Z,101657.34
2022-10-08T08:32:09.890Z,101663.88
2022-10-08T08:35:13.581Z,101667.09
2022-10-08T08:38:17.639Z,101673.78
2022-10-08T08:41:53.498Z,101672.13
2022-10-08T08:45:03.072Z,101673.91
2022-10-08T08:48:16.750Z,101673.56
2022-10-08T08:51:20.414Z,101683.44
2022-10-08T08:54:24.960Z,101666.06
2022-10-08T08:57:38.439Z,101677.63
2022-10-08T09:00:51.295Z,101680.34
2022-10-08T09:04:00.990Z,101681.44
2022-10-08T09:07:13.467Z,101681.66
2022-10-08T09:10:24.321Z,101678.47
2022-10-08T09:13:35.588Z,101679.56
2022-10-08T09:16:41.031Z,101673.22
2022-10-08T09:19:45.704Z,101678.56
2022-10-08T09:22:51.815Z,101678.28
2022-10-08T09:26:03.067Z,101676.84
2022-10-08T09:29:07.514Z,101681.78
2022-10-08T09:32:20.113Z,101673.16
2022-10-08T09:35:25.587Z,101680.63
2022-10-08T09:38:36.366Z,101680.56
2022-10-08T09:41:39.898Z,101685.50
2022-10-08T09:44:46.573Z,101694.38
2022-10-08T09:48:23.290Z,101703.31
2022-10-08T09:51:27.034Z,101700.75
2022-10-08T09:54:36.334Z,101700.16
2022-10-08T09:57:48.356Z,101710.09
2022-10-08T10:01:07.908Z,101715.56
2022-10-08T10:04:24.535Z,101724.69
2022-10-08T10:07:40.829Z,101720.84
2022-10-08T10:10:48.606Z,101726.75
2022-10-08T10:13:52.548Z,101730.00
2022-10-08T10:17:03.892Z,101730.25
2022-10-08T10:20:21.886Z,101730.91
2022-10-08T10:23:32.935Z,101737.19
2022-10-08T10:26:43.277Z,101747.56
2022-10-08T10:29:57.739Z,101744.84
2022-10-08T10:33:11.676Z,101736.47
2022-10-08T10:36:21.207Z,101736.66
2022-10-08T10:39:45.450Z,101738.63
2022-10-08T10:43:01.215Z,101749.03
2022-10-08T10:46:28.072Z,101743.81
2022-10-08T10:49:38.365Z,101753.09
2022-10-08T10:52:58.871Z,101756.03
2022-10-08T10:56:12.020Z,101759.59
2022-10-08T10:59:45.283Z,101758.97
2022-10-08T11:02:58.143Z,101760.38
2022-10-08T11:06:30.028Z,101747.81
2022-10-08T11:09:49.890Z,101750.28
2022-10-08T11:13:06.467Z,101751.81
2022-10-08T11:16:31.555Z,101745.75
2022-10-08T11:19:53.343Z,101743.56
2022-10-08T11:23:09.059Z,101741.69
2022-10-08T11:26:25.376Z,101742.13
2022-10-08T11:29:43.709Z,101748.34
2022-10-08T11:32:53.073Z,101753.38
2022-10-08T11:36:14.370Z,101759.31
2022-10-08T11:39:27.923Z,101751.78
2022-10-08T11:42:47.484Z,101762.47
2022-10-08T11:46:22.898Z,101763.38
2022-10-08T11:49:55.503Z,101757.25
2022-10-08T11:53:18.955Z,101763.41
2022-10-08T11:56:22.728Z,101764.53
2022-10-08T11:59:37.906Z,101769.22
2022-10-08T12:02:46.731Z,101770.25
2022-10-08T12:05:53.770Z,101772.78
2022-10-08T12:09:00.121Z,101766.31
2022-10-08T12:12:14.802Z,101773.59
2022-10-08T12:15:57.365Z,101778.94
2022-10-08T12:19:01.060Z,101779.03
2022-10-08T12:22:13.614Z,101792.13
2022-10-08T12:26:11.864Z,101794.34
2022-10-08T12:29:29.824Z,101799.34
2022-10-08T12:32:58.171Z,101804.84
2022-10-08T12:36:15.814Z,101831.78
2022-10-08T12:39:35.729Z,101850.13
2022-10-08T12:42:42.316Z,101870.56
2022-10-08T12:45:58.542Z,101860.38
2022-10-08T12:49:17.250Z,101846.56
2022-10-08T12:52:21.903Z,101853.34
2022-10-08T12:55:26.754Z,101863.63
2022-10-08T12:58:34.571Z,101856.00
2022-10-08T13:01:38.605Z,101852.84
2022-10-08T13:04:47.874Z,101863.28
2022-10-08T13:07:51.511Z,101858.28
2022-10-08T13:10:56.087Z,101865.88
2022-10-08T13:13:59.683Z,101857.53
2022-10-08T13:17:05.577Z,101864.09
2022-10-08T13:20:18.742Z,101858.50
2022-10-08T13:23:35.391Z,101854.66
2022-10-08T13:26:44.707Z,101866.91
2022-10-08T13:29:48.388Z,101867.97
2022-10-08T13:33:02.001Z,101876.34
2022-10-08T13:36:07.351Z,101885.66
2022-10-08T13:39:22.615Z,101885.59
2022-10-08T13:42:31.146Z,101888.03
2022-10-08T13:45:37.894Z,101885.84
2022-10-08T13:48:44.468Z,101879.66
2022-10-08T13:51:50.694Z,101872.16
2022-10-08T13:55:04.411Z,101887.63
2022-10-08T13:58:08.682Z,101875.97
2022-10-08T14:01:12.402Z,101871.88
2022-10-08T14:04:17.225Z,101877.13
2022-10-08T14:07:28.474Z,101881.91
2022-10-08T14:10:32.719Z,101879.97
2022-10-08T14:13:36.320Z,101884.16
2022-10-08T14:16:39.980Z,101876.97
2022-10-08T14:19:43.635Z,101887.16
2022-10-08T14:22:50.105Z,101882.56
2022-10-08T14:25:54.020Z,101884.94
2022-10-08T14:28:57.807Z,101889.13
2022-10-08T14:32:01.664Z,101895.69
2022-10-08T14:35:06.696Z,101893.44
2022-10-08T14:38:12.078Z,101892.09
2022-10-08T14:41:16.811Z,101899.78
2022-10-08T14:44:22.599Z,101903.50
2022-10-08T14:47:26.247Z,101908.66
2022-10-08T14:50:29.903Z,101913.88
2022-10-08T14:53:35.032Z,101918.22
2022-10-08T14:56:39.232Z,101918.53
2022-10-08T14:59:42.785Z,101926.44
2022-10-08T15:02:46.787Z,101929.97
2022-10-08T15:05:51.442Z,101936.69
2022-10-08T15:08:56.442Z,101945.41
2022-10-08T15:12:00.005Z,101939.72
2022-10-08T15:15:04.012Z,101944.38
2022-10-08T15:18:07.807Z,101951.78
2022-10-08T15:21:12.156Z,101952.97
2022-10-08T15:24:17.078Z,101953.31
2022-10-08T15:27:21.164Z,101956.19
2022-10-08T15:30:25.604Z,101970.41
2022-10-08T15:33:29.308Z,101965.31
2022-10-08T15:36:36.278Z,101978.59
2022-10-08T15:39:41.268Z,101982.22
2022-10-08T15:42:45.025Z,101980.69
2022-10-08T15:45:49.185Z,101980.97
2022-10-08T15:48:55.031Z,101985.59
2022-10-08T15:51:59.030Z,101988.31
2022-10-08T15:55:04.288Z,101993.69
2022-10-08T15:58:07.879Z,101999.00
2022-10-08T16:01:15.031Z,102000.91
2022-10-08T16:04:18.638Z,102013.38
2022-10-08T16:07:22.345Z,102020.59
2022-10-08T16:10:27.416Z,102025.25
2022-10-08T16:13:31.050Z,102021.94
2022-10-08T16:16:34.888Z,102022.00
2022-10-08T16:19:38.544Z,102029.97
2022-10-08T16:22:42.210Z,102031.75
2022-10-08T16:25:47.246Z,102045.94
2022-10-08T16:28:55.168Z,102041.63
2022-10-08T16:31:58.798Z,102049.63
2022-10-08T16:35:02.391Z,102062.09
2022-10-08T16:38:05.992Z,102070.03
2022-10-08T16:41:17.773Z,102071.97
2022-10-08T16:44:22.923Z,102077.41
2022-10-08T16:47:26.788Z,102086.31
2022-10-08T16:50:30.404Z,102088.16
2022-10-08T16:53:33.945Z,102102.28
2022-10-08T16:56:41.954Z,102107.44
2022-10-08T16:59:45.524Z,102104.75
2022-10-08T17:02:49.944Z,102109.97
2022-10-08T17:05:53.741Z,102109.13
2022-10-08T17:08:59.363Z,102115.25
2022-10-08T17:12:04.487Z,102121.47
2022-10-08T17:15:09.676Z,102124.97
2022-10-08T17:18:13.344Z,102127.69
2022-10-08T17:21:17.059Z,102138.28
2022-10-08T17:24:20.839Z,102138.41
2022-10-08T17:27:25.847Z,102144.59
2022-10-08T17:30:29.406Z,102157.81
2022-10-08T17:33:35.950Z,102166.66
2022-10-08T17:36:44.170Z,102167.69
2022-10-08T17:39:47.752Z,102171.31
2022-10-08T17:42:52.678Z,102173.13
2022-10-08T17:45:56.398Z,102184.63
2022-10-08T17:49:00.251Z,102188.22
2022-10-08T17:52:03.837Z,102190.88
2022-10-08T17:55:08.947Z,102191.81
2022-10-08T17:58:14.084Z,102195.38
2022-10-08T18:01:20.436Z,102199.84
2022-10-08T18:04:24.122Z,102207.75
2022-10-08T18:07:27.650Z,102213.06
2022-10-08T18:10:31.330Z,102213.13
2022-10-08T18:13:37.256Z,102217.50
2022-10-08T18:16:44.343Z,102217.56
2022-10-08T18:19:51.384Z,102215.78
2022-10-08T18:22:55.168Z,102222.81
2022-10-08T18:26:09.843Z,102228.97
2022-10-08T18:29:16.273Z,102237.75
2022-10-08T18:32:19.847Z,102239.53
2022-10-08T18:35:24.620Z,102240.50
2022-10-08T18:38:28.171Z,102245.78
2022-10-08T18:41:35.473Z,102244.94
2022-10-08T18:44:40.431Z,102252.88
2022-10-08T18:47:44.718Z,102258.16
2022-10-08T18:50:48.258Z,102266.91
2022-10-08T18:53:53.957Z,102275.69
2022-10-08T18:57:00.276Z,102278.28
2022-10-08T19:00:06.228Z,102276.56
2022-10-08T19:03:09.951Z,102280.09
2022-10-08T19:06:13.636Z,102290.59
2022-10-08T19:09:17.760Z,102288.00
2022-10-08T19:12:21.356Z,102293.25
2022-10-08T19:15:39.908Z,102295.91
2022-10-08T19:18:44.840Z,102294.19
2022-10-08T19:21:49.955Z,102296.81
2022-10-08T19:24:53.739Z,102297.72
2022-10-08T19:27:57.969Z,102294.22
2022-10-08T19:31:03.172Z,102300.38
2022-10-08T19:34:09.013Z,102310.88
2022-10-08T19:37:12.635Z,102313.50
2022-10-08T19:40:16.347Z,102317.88
2022-10-08T19:43:19.979Z,102320.47
2022-10-08T19:46:26.221Z,102319.66
2022-10-08T19:49:30.014Z,102329.25
2022-10-08T19:52:33.605Z,102338.00
2022-10-08T19:55:38.419Z,102337.13
2022-10-08T19:58:48.461Z,102343.25
2022-10-08T20:01:53.970Z,102339.78
2022-10-08T20:04:57.575Z,102345.91
2022-10-08T20:08:01.162Z,102349.44
2022-10-08T20:11:05.303Z,102352.91
2022-10-08T20:14:09.532Z,102352.03
2022-10-08T20:17:14.509Z,102363.41
2022-10-08T20:20:32.204Z,102366.91
2022-10-08T20:23:38.580Z,102379.97
2022-10-08T20:26:44.112Z,102378.22
2022-10-08T20:29:47.714Z,102381.75
2022-10-08T20:32:52.739Z,102385.22
2022-10-08T20:35:56.315Z,102385.22
2022-10-08T20:39:00.645Z,102391.31
2022-10-08T20:42:04.198Z,102388.69
2022-10-08T20:45:11.949Z,102397.44
2022-10-08T20:48:16.899Z,102398.31
2022-10-08T20:51:22.794Z,102396.59
2022-10-08T20:54:26.498Z,102404.44
2022-10-08T20:57:30.093Z,102406.19
2022-10-08T21:00:34.294Z,102402.72
2022-10-08T21:03:43.986Z,102407.06
2022-10-08T21:06:50.217Z,102415.78
2022-10-08T21:09:53.702Z,102420.13
2022-10-08T21:12:57.327Z,102421.03
2022-10-08T21:16:03.190Z,102418.41
2022-10-08T21:19:12.643Z,102424.50
2022-10-08T21:22:16.134Z,102421.88
2022-10-08T21:25:20.417Z,102421.91
2022-10-08T21:28:24.031Z,102428.84
2022-10-08T21:31:30.624Z,102431.47
2022-10-08T21:34:35.744Z,102430.63
2022-10-08T21:37:39.349Z,102436.72
2022-10-08T21:40:43.108Z,102433.25
2022-10-08T21:43:49.166Z,102434.09
2022-10-08T21:46:52.850Z,102428.88
2022-10-08T21:49:57.759Z,102423.66
2022-10-08T21:53:01.343Z,102435.84
2022-10-08T21:56:08.127Z,102436.72
2022-10-08T21:59:15.363Z,102439.34
2022-10-08T22:02:19.014Z,102447.19
2022-10-08T22:05:29.101Z,102446.31
2022-10-08T22:08:33.452Z,102447.19
2022-10-08T22:11:37.059Z,102439.34
2022-10-08T22:14:40.682Z,102448.94
2022-10-08T22:17:44.229Z,102448.91
2022-10-08T22:20:49.360Z,102442.81
2022-10-08T22:23:54.123Z,102448.03
2022-10-08T22:26:57.704Z,102448.91
2022-10-08T22:30:01.255Z,102446.28
2022-10-08T22:33:05.491Z,102442.78
2022-10-08T22:36:14.639Z,102451.47
2022-10-08T22:39:18.178Z,102451.47
2022-10-08T22:42:22.635Z,102445.41
2022-10-08T22:45:26.490Z,102447.13
2022-10-08T22:48:30.415Z,102456.72
2022-10-08T22:51:35.766Z,102461.03
2022-10-08T22:54:39.395Z,102466.28
2022-10-08T22:57:42.974Z,102462.75
2022-10-08T23:00:46.663Z,102467.13
2022-10-08T23:03:51.329Z,102470.59
2022-10-08T23:06:56.523Z,102466.25
2022-10-08T23:10:00.318Z,102469.75
2022-10-08T23:13:04.116Z,102463.66
2022-10-08T23:16:10.461Z,102462.75
2022-10-08T23:19:14.087Z,102463.63
2022-10-08T23:22:18.999Z,102467.09
2022-10-08T23:25:22.659Z,102470.59
2022-10-08T23:28:27.218Z,102468.81
2022-10-08T23:31:33.472Z,102471.44
2022-10-08T23:34:37.179Z,102474.91
2022-10-08T23:37:42.545Z,102480.13
2022-10-08T23:40:46.235Z,102469.69
2022-10-08T23:43:52.986Z,102481.00
2022-10-08T23:46:56.650Z,102482.75
2022-10-08T23:50:00.756Z,102483.59
2022-10-08T23:53:06.239Z,102471.38
2022-10-08T23:56:10.992Z,102482.69
2022-10-08T23:59:14.590Z,102479.22
